sensor_id;sensor_type;location;lat;lon;timestamp;pressure;altitude;pressure_sealevel;temperature;humidity
52653;BME280;39353;42.864;12.014;2023-05-21T00:00:38;97012.90;;;22.37;56.32
52653;BME280;39353;42.864;12.014;2023-05-21T00:03:26;97009.08;;;22.37;56.24
52653;BME280;39353;42.864;12.014;2023-05-21T00:06:08;97008.64;;;22.37;56.31
52653;BME280;39353;42.864;12.014;2023-05-21T00:08:35;97007.06;;;22.37;56.37
52653;BME280;39353;42.864;12.014;2023-05-21T00:11:04;97007.70;;;22.36;56.35
52653;BME280;39353;42.864;12.014;2023-05-21T00:13:45;97007.25;;;22.36;56.27
52653;BME280;39353;42.864;12.014;2023-05-21T00:16:13;97002.09;;;22.35;56.34
52653;BME280;39353;42.864;12.014;2023-05-21T00:18:54;97004.05;;;22.34;56.42
52653;BME280;39353;42.864;12.014;2023-05-21T00:21:22;97004.27;;;22.34;56.42
52653;BME280;39353;42.864;12.014;2023-05-21T00:23:52;97001.70;;;22.34;56.36
52653;BME280;39353;42.864;12.014;2023-05-21T00:26:36;97005.10;;;22.34;56.33
52653;BME280;39353;42.864;12.014;2023-05-21T00:29:18;97001.98;;;22.35;56.31
52653;BME280;39353;42.864;12.014;2023-05-21T00:31:58;97002.36;;;22.35;56.31
52653;BME280;39353;42.864;12.014;2023-05-21T00:34:26;97001.96;;;22.33;56.33
52653;BME280;39353;42.864;12.014;2023-05-21T00:37:08;97001.67;;;22.33;56.35
52653;BME280;39353;42.864;12.014;2023-05-21T00:39:35;97000.72;;;22.31;56.40
52653;BME280;39353;42.864;12.014;2023-05-21T00:42:16;97002.95;;;22.31;56.34
52653;BME280;39353;42.864;12.014;2023-05-21T00:44:58;96999.99;;;22.30;56.34
52653;BME280;39353;42.864;12.014;2023-05-21T00:47:25;97000.59;;;22.30;56.36
52653;BME280;39353;42.864;12.014;2023-05-21T00:50:09;96993.11;;;22.30;56.41
52653;BME280;39353;42.864;12.014;2023-05-21T00:52:51;96988.39;;;22.29;56.38
52653;BME280;39353;42.864;12.014;2023-05-21T00:55:19;96989.76;;;22.29;56.44
52653;BME280;39353;42.864;12.014;2023-05-21T00:58:00;96982.38;;;22.29;56.29
52653;BME280;39353;42.864;12.014;2023-05-21T01:00:34;96983.54;;;22.30;56.30
52653;BME280;39353;42.864;12.014;2023-05-21T01:03:15;96981.52;;;22.30;56.29
52653;BME280;39353;42.864;12.014;2023-05-21T01:05:56;96983.94;;;22.31;56.29
52653;BME280;39353;42.864;12.014;2023-05-21T01:08:40;96973.11;;;22.30;56.31
52653;BME280;39353;42.864;12.014;2023-05-21T01:11:08;96975.08;;;22.31;56.23
52653;BME280;39353;42.864;12.014;2023-05-21T01:13:50;96970.60;;;22.31;56.03
52653;BME280;39353;42.864;12.014;2023-05-21T01:16:31;96961.98;;;22.32;56.32
52653;BME280;39353;42.864;12.014;2023-05-21T01:18:59;96958.92;;;22.32;56.20
52653;BME280;39353;42.864;12.014;2023-05-21T01:21:49;96956.81;;;22.33;56.15
52653;BME280;39353;42.864;12.014;2023-05-21T01:24:17;96953.48;;;22.33;56.13
52653;BME280;39353;42.864;12.014;2023-05-21T01:27:01;96948.34;;;22.34;56.10
52653;BME280;39353;42.864;12.014;2023-05-21T01:29:29;96943.36;;;22.33;56.19
52653;BME280;39353;42.864;12.014;2023-05-21T01:35:30;96943.38;;;22.31;56.29
52653;BME280;39353;42.864;12.014;2023-05-21T01:40:54;96944.04;;;22.28;56.46
52653;BME280;39353;42.864;12.014;2023-05-21T01:43:28;96943.08;;;22.26;56.50
52653;BME280;39353;42.864;12.014;2023-05-21T01:46:17;96940.34;;;22.26;56.44
52653;BME280;39353;42.864;12.014;2023-05-21T01:49:01;96933.51;;;22.25;56.23
52653;BME280;39353;42.864;12.014;2023-05-21T01:51:29;96934.59;;;22.25;56.25
52653;BME280;39353;42.864;12.014;2023-05-21T01:53:56;96939.67;;;22.24;56.32
52653;BME280;39353;42.864;12.014;2023-05-21T01:56:25;96937.30;;;22.23;56.22
52653;BME280;39353;42.864;12.014;2023-05-21T01:58:57;96934.90;;;22.23;56.21
52653;BME280;39353;42.864;12.014;2023-05-21T02:01:40;96935.05;;;22.23;56.36
52653;BME280;39353;42.864;12.014;2023-05-21T02:04:08;96932.80;;;22.22;56.41
52653;BME280;39353;42.864;12.014;2023-05-21T02:06:35;96935.46;;;22.21;56.32
52653;BME280;39353;42.864;12.014;2023-05-21T02:09:16;96939.90;;;22.22;56.52
52653;BME280;39353;42.864;12.014;2023-05-21T02:11:44;96938.19;;;22.21;56.22
52653;BME280;39353;42.864;12.014;2023-05-21T02:14:11;96933.09;;;22.20;56.54
52653;BME280;39353;42.864;12.014;2023-05-21T02:16:53;96931.17;;;22.20;56.37
52653;BME280;39353;42.864;12.014;2023-05-21T02:19:34;96929.35;;;22.18;56.44
52653;BME280;39353;42.864;12.014;2023-05-21T02:22:15;96927.92;;;22.18;56.47
52653;BME280;39353;42.864;12.014;2023-05-21T02:24:42;96927.33;;;22.18;56.48
52653;BME280;39353;42.864;12.014;2023-05-21T02:27:25;96923.48;;;22.17;56.44
52653;BME280;39353;42.864;12.014;2023-05-21T02:30:00;96921.23;;;22.16;56.50
52653;BME280;39353;42.864;12.014;2023-05-21T02:32:42;96924.94;;;22.16;56.40
52653;BME280;39353;42.864;12.014;2023-05-21T02:35:11;96920.63;;;22.16;56.45
52653;BME280;39353;42.864;12.014;2023-05-21T02:37:39;96918.71;;;22.16;56.48
52653;BME280;39353;42.864;12.014;2023-05-21T02:40:20;96918.31;;;22.15;56.39
52653;BME280;39353;42.864;12.014;2023-05-21T02:43:02;96914.75;;;22.15;56.41
52653;BME280;39353;42.864;12.014;2023-05-21T02:45:30;96915.30;;;22.15;56.37
52653;BME280;39353;42.864;12.014;2023-05-21T02:47:58;96909.14;;;22.16;56.39
52653;BME280;39353;42.864;12.014;2023-05-21T02:50:26;96909.09;;;22.16;56.38
52653;BME280;39353;42.864;12.014;2023-05-21T02:53:00;96904.44;;;22.15;56.32
52653;BME280;39353;42.864;12.014;2023-05-21T02:55:41;96903.18;;;22.15;56.34
52653;BME280;39353;42.864;12.014;2023-05-21T02:58:08;96899.02;;;22.15;56.39
52653;BME280;39353;42.864;12.014;2023-05-21T03:00:50;96898.45;;;22.14;56.38
52653;BME280;39353;42.864;12.014;2023-05-21T03:03:18;96902.38;;;22.13;56.53
52653;BME280;39353;42.864;12.014;2023-05-21T03:05:59;96901.98;;;22.13;56.56
52653;BME280;39353;42.864;12.014;2023-05-21T03:08:41;96899.25;;;22.12;56.51
52653;BME280;39353;42.864;12.014;2023-05-21T03:11:08;96896.14;;;22.12;56.54
52653;BME280;39353;42.864;12.014;2023-05-21T03:13:35;96894.66;;;22.12;56.55
52653;BME280;39353;42.864;12.014;2023-05-21T03:16:03;96894.98;;;22.11;56.56
52653;BME280;39353;42.864;12.014;2023-05-21T03:18:31;96897.54;;;22.10;56.65
52653;BME280;39353;42.864;12.014;2023-05-21T03:21:12;96899.05;;;22.09;56.67
52653;BME280;39353;42.864;12.014;2023-05-21T03:23:56;96902.73;;;22.09;56.57
52653;BME280;39353;42.864;12.014;2023-05-21T03:26:27;96897.95;;;22.10;56.58
52653;BME280;39353;42.864;12.014;2023-05-21T03:29:10;96899.48;;;22.09;56.60
52653;BME280;39353;42.864;12.014;2023-05-21T03:31:39;96904.25;;;22.09;56.56
52653;BME280;39353;42.864;12.014;2023-05-21T03:34:25;96900.52;;;22.08;56.66
52653;BME280;39353;42.864;12.014;2023-05-21T03:36:52;96899.46;;;22.08;56.56
52653;BME280;39353;42.864;12.014;2023-05-21T03:39:21;96900.29;;;22.08;56.49
52653;BME280;39353;42.864;12.014;2023-05-21T03:42:03;96899.95;;;22.06;56.56
52653;BME280;39353;42.864;12.014;2023-05-21T03:44:41;96903.33;;;22.07;56.55
52653;BME280;39353;42.864;12.014;2023-05-21T03:47:27;96903.48;;;22.06;56.67
52653;BME280;39353;42.864;12.014;2023-05-21T03:49:56;96898.98;;;22.05;56.68
52653;BME280;39353;42.864;12.014;2023-05-21T03:52:23;96897.66;;;22.05;56.75
52653;BME280;39353;42.864;12.014;2023-05-21T03:54:50;96898.75;;;22.05;56.65
52653;BME280;39353;42.864;12.014;2023-05-21T03:57:17;96897.00;;;22.04;56.81
52653;BME280;39353;42.864;12.014;2023-05-21T03:59:47;96896.45;;;22.04;56.67
52653;BME280;39353;42.864;12.014;2023-05-21T04:02:28;96899.02;;;22.04;56.70
52653;BME280;39353;42.864;12.014;2023-05-21T04:05:09;96899.12;;;22.03;56.79
52653;BME280;39353;42.864;12.014;2023-05-21T04:07:50;96899.61;;;22.04;56.70
52653;BME280;39353;42.864;12.014;2023-05-21T04:10:33;96903.15;;;22.03;56.66
52653;BME280;39353;42.864;12.014;2023-05-21T04:13:00;96905.98;;;22.02;56.85
52653;BME280;39353;42.864;12.014;2023-05-21T04:15:42;96906.37;;;22.02;56.79
52653;BME280;39353;42.864;12.014;2023-05-21T04:18:24;96907.95;;;22.03;56.74
52653;BME280;39353;42.864;12.014;2023-05-21T04:20:52;96903.21;;;22.03;56.64
52653;BME280;39353;42.864;12.014;2023-05-21T04:23:34;96907.84;;;22.02;56.71
52653;BME280;39353;42.864;12.014;2023-05-21T04:26:05;96907.66;;;22.01;56.82
52653;BME280;39353;42.864;12.014;2023-05-21T04:28:33;96905.10;;;22.01;56.76
52653;BME280;39353;42.864;12.014;2023-05-21T04:31:01;96902.02;;;22.01;56.75
52653;BME280;39353;42.864;12.014;2023-05-21T04:33:42;96900.34;;;22.01;56.77
52653;BME280;39353;42.864;12.014;2023-05-21T04:36:25;96905.86;;;22.01;56.78
52653;BME280;39353;42.864;12.014;2023-05-21T04:39:10;96906.04;;;22.02;56.80
52653;BME280;39353;42.864;12.014;2023-05-21T04:41:38;96904.02;;;22.02;56.89
52653;BME280;39353;42.864;12.014;2023-05-21T04:44:07;96903.52;;;22.02;56.90
52653;BME280;39353;42.864;12.014;2023-05-21T04:46:35;96901.77;;;22.02;56.88
52653;BME280;39353;42.864;12.014;2023-05-21T04:49:02;96902.75;;;22.02;57.07
52653;BME280;39353;42.864;12.014;2023-05-21T04:51:30;96905.42;;;22.01;56.79
52653;BME280;39353;42.864;12.014;2023-05-21T04:54:11;96905.71;;;22.02;57.04
52653;BME280;39353;42.864;12.014;2023-05-21T04:56:40;96914.73;;;22.03;57.00
52653;BME280;39353;42.864;12.014;2023-05-21T04:59:07;96913.82;;;22.04;57.03
52653;BME280;39353;42.864;12.014;2023-05-21T05:01:48;96912.02;;;22.03;57.00
52653;BME280;39353;42.864;12.014;2023-05-21T05:04:30;96909.84;;;22.04;56.93
52653;BME280;39353;42.864;12.014;2023-05-21T05:06:58;96913.66;;;22.04;56.84
52653;BME280;39353;42.864;12.014;2023-05-21T05:09:26;96911.35;;;22.03;56.92
52653;BME280;39353;42.864;12.014;2023-05-21T05:11:53;96906.44;;;22.03;56.91
52653;BME280;39353;42.864;12.014;2023-05-21T05:14:20;96905.60;;;22.02;56.93
52653;BME280;39353;42.864;12.014;2023-05-21T05:16:47;96905.44;;;22.02;56.78
52653;BME280;39353;42.864;12.014;2023-05-21T05:19:15;96905.72;;;22.03;56.87
52653;BME280;39353;42.864;12.014;2023-05-21T05:21:42;96910.39;;;22.05;56.72
52653;BME280;39353;42.864;12.014;2023-05-21T05:24:23;96913.55;;;22.04;56.76
52653;BME280;39353;42.864;12.014;2023-05-21T05:26:50;96915.31;;;22.05;56.83
52653;BME280;39353;42.864;12.014;2023-05-21T05:29:17;96916.84;;;22.06;56.72
52653;BME280;39353;42.864;12.014;2023-05-21T05:31:44;96914.67;;;22.05;56.79
52653;BME280;39353;42.864;12.014;2023-05-21T05:34:11;96915.21;;;22.05;56.73
52653;BME280;39353;42.864;12.014;2023-05-21T05:36:38;96916.80;;;22.06;56.62
52653;BME280;39353;42.864;12.014;2023-05-21T05:39:20;96921.84;;;22.06;56.75
52653;BME280;39353;42.864;12.014;2023-05-21T05:42:03;96920.27;;;22.07;56.80
52653;BME280;39353;42.864;12.014;2023-05-21T05:44:44;96919.98;;;22.06;56.81
52653;BME280;39353;42.864;12.014;2023-05-21T05:47:25;96921.58;;;22.06;56.78
52653;BME280;39353;42.864;12.014;2023-05-21T05:50:06;96919.45;;;22.06;56.74
52653;BME280;39353;42.864;12.014;2023-05-21T05:52:35;96922.98;;;22.06;56.60
52653;BME280;39353;42.864;12.014;2023-05-21T05:55:16;96926.80;;;22.06;56.70
52653;BME280;39353;42.864;12.014;2023-05-21T05:57:57;96924.27;;;22.05;56.60
52653;BME280;39353;42.864;12.014;2023-05-21T06:00:24;96929.67;;;22.04;56.74
52653;BME280;39353;42.864;12.014;2023-05-21T06:02:52;96931.34;;;22.03;56.83
52653;BME280;39353;42.864;12.014;2023-05-21T06:05:20;96930.29;;;22.02;56.76
52653;BME280;39353;42.864;12.014;2023-05-21T06:08:01;96927.87;;;22.01;56.88
52653;BME280;39353;42.864;12.014;2023-05-21T06:10:42;96931.70;;;22.01;56.85
52653;BME280;39353;42.864;12.014;2023-05-21T06:13:09;96931.08;;;22.00;56.89
52653;BME280;39353;42.864;12.014;2023-05-21T06:15:38;96929.44;;;22.00;56.91
52653;BME280;39353;42.864;12.014;2023-05-21T06:18:09;96924.51;;;21.99;56.92
52653;BME280;39353;42.864;12.014;2023-05-21T06:20:51;96921.78;;;22.00;56.92
52653;BME280;39353;42.864;12.014;2023-05-21T06:23:34;96925.50;;;22.00;56.81
52653;BME280;39353;42.864;12.014;2023-05-21T06:26:03;96926.05;;;22.00;56.98
52653;BME280;39353;42.864;12.014;2023-05-21T06:28:30;96920.58;;;22.00;56.94
52653;BME280;39353;42.864;12.014;2023-05-21T06:30:58;96923.39;;;22.01;56.88
52653;BME280;39353;42.864;12.014;2023-05-21T06:33:25;96925.09;;;22.01;56.82
52653;BME280;39353;42.864;12.014;2023-05-21T06:36:09;96926.39;;;22.01;56.85
52653;BME280;39353;42.864;12.014;2023-05-21T06:38:37;96931.22;;;22.02;56.83
52653;BME280;39353;42.864;12.014;2023-05-21T06:41:19;96930.30;;;22.03;56.83
52653;BME280;39353;42.864;12.014;2023-05-21T06:44:04;96925.59;;;22.02;56.89
52653;BME280;39353;42.864;12.014;2023-05-21T06:47:02;96929.30;;;22.01;56.86
52653;BME280;39353;42.864;12.014;2023-05-21T06:49:31;96928.64;;;22.02;56.80
52653;BME280;39353;42.864;12.014;2023-05-21T06:52:12;96927.63;;;22.03;56.87
52653;BME280;39353;42.864;12.014;2023-05-21T06:54:42;96930.42;;;22.03;56.76
52653;BME280;39353;42.864;12.014;2023-05-21T06:57:09;96929.57;;;22.04;56.75
52653;BME280;39353;42.864;12.014;2023-05-21T06:59:36;96930.06;;;22.05;56.80
52653;BME280;39353;42.864;12.014;2023-05-21T07:02:04;96928.52;;;22.04;56.75
52653;BME280;39353;42.864;12.014;2023-05-21T07:04:32;96929.98;;;22.04;56.79
52653;BME280;39353;42.864;12.014;2023-05-21T07:07:01;96931.75;;;22.04;56.75
52653;BME280;39353;42.864;12.014;2023-05-21T07:09:31;96932.60;;;22.06;56.84
52653;BME280;39353;42.864;12.014;2023-05-21T07:11:58;96926.06;;;22.07;56.71
52653;BME280;39353;42.864;12.014;2023-05-21T07:14:27;96926.91;;;22.08;56.68
52653;BME280;39353;42.864;12.014;2023-05-21T07:17:08;96926.30;;;22.11;56.74
52653;BME280;39353;42.864;12.014;2023-05-21T07:19:49;96926.30;;;22.12;56.69
52653;BME280;39353;42.864;12.014;2023-05-21T07:22:16;96931.66;;;22.13;56.70
52653;BME280;39353;42.864;12.014;2023-05-21T07:24:58;96926.16;;;22.13;56.64
52653;BME280;39353;42.864;12.014;2023-05-21T07:27:40;96927.91;;;22.14;56.63
52653;BME280;39353;42.864;12.014;2023-05-21T07:30:09;96929.91;;;22.16;56.57
52653;BME280;39353;42.864;12.014;2023-05-21T07:32:50;96931.23;;;22.16;56.60
52653;BME280;39353;42.864;12.014;2023-05-21T07:35:19;96925.34;;;22.17;56.60
52653;BME280;39353;42.864;12.014;2023-05-21T07:38:01;96926.20;;;22.20;56.72
52653;BME280;39353;42.864;12.014;2023-05-21T07:40:29;96926.02;;;22.22;56.74
52653;BME280;39353;42.864;12.014;2023-05-21T07:43:11;96928.20;;;22.25;56.58
52653;BME280;39353;42.864;12.014;2023-05-21T07:45:39;96929.95;;;22.28;56.39
52653;BME280;39353;42.864;12.014;2023-05-21T07:48:22;96929.59;;;22.30;56.39
52653;BME280;39353;42.864;12.014;2023-05-21T07:51:09;96925.71;;;22.30;56.38
52653;BME280;39353;42.864;12.014;2023-05-21T07:53:37;96932.60;;;22.30;56.50
52653;BME280;39353;42.864;12.014;2023-05-21T07:56:07;96932.33;;;22.30;56.38
52653;BME280;39353;42.864;12.014;2023-05-21T07:58:35;96939.02;;;22.31;56.51
52653;BME280;39353;42.864;12.014;2023-05-21T08:01:16;96943.09;;;22.34;56.65
52653;BME280;39353;42.864;12.014;2023-05-21T08:03:58;96946.39;;;22.35;56.51
52653;BME280;39353;42.864;12.014;2023-05-21T08:06:40;96944.22;;;22.36;56.58
52653;BME280;39353;42.864;12.014;2023-05-21T08:09:07;96943.64;;;22.37;56.59
52653;BME280;39353;42.864;12.014;2023-05-21T08:11:49;96939.27;;;22.37;56.36
52653;BME280;39353;42.864;12.014;2023-05-21T08:14:16;96936.22;;;22.38;56.42
52653;BME280;39353;42.864;12.014;2023-05-21T08:16:58;96933.77;;;22.39;56.37
52653;BME280;39353;42.864;12.014;2023-05-21T08:19:39;96929.03;;;22.40;56.40
52653;BME280;39353;42.864;12.014;2023-05-21T08:22:06;96931.73;;;22.42;56.21
52653;BME280;39353;42.864;12.014;2023-05-21T08:24:36;96934.75;;;22.42;56.24
52653;BME280;39353;42.864;12.014;2023-05-21T08:27:17;96933.15;;;22.43;56.28
52653;BME280;39353;42.864;12.014;2023-05-21T08:29:59;96928.77;;;22.43;56.25
52653;BME280;39353;42.864;12.014;2023-05-21T08:32:26;96926.55;;;22.44;56.32
52653;BME280;39353;42.864;12.014;2023-05-21T08:34:54;96924.23;;;22.43;56.15
52653;BME280;39353;42.864;12.014;2023-05-21T08:37:39;96922.94;;;22.43;56.15
52653;BME280;39353;42.864;12.014;2023-05-21T08:40:36;96925.73;;;22.44;56.22
52653;BME280;39353;42.864;12.014;2023-05-21T08:43:04;96925.10;;;22.46;56.40
52653;BME280;39353;42.864;12.014;2023-05-21T08:45:53;96926.85;;;22.46;56.28
52653;BME280;39353;42.864;12.014;2023-05-21T08:48:36;96930.60;;;22.48;56.35
52653;BME280;39353;42.864;12.014;2023-05-21T08:51:04;96930.11;;;22.49;56.35
52653;BME280;39353;42.864;12.014;2023-05-21T08:54:00;96933.95;;;22.49;56.30
52653;BME280;39353;42.864;12.014;2023-05-21T08:56:42;96930.58;;;22.51;56.61
52653;BME280;39353;42.864;12.014;2023-05-21T08:59:17;96930.52;;;22.54;56.50
52653;BME280;39353;42.864;12.014;2023-05-21T09:02:00;96928.47;;;22.56;56.56
52653;BME280;39353;42.864;12.014;2023-05-21T09:04:36;96927.98;;;22.56;56.45
52653;BME280;39353;42.864;12.014;2023-05-21T09:07:18;96932.59;;;22.57;56.41
52653;BME280;39353;42.864;12.014;2023-05-21T09:10:06;96932.07;;;22.58;56.39
52653;BME280;39353;42.864;12.014;2023-05-21T09:12:50;96937.67;;;22.57;56.23
52653;BME280;39353;42.864;12.014;2023-05-21T09:15:18;96937.65;;;22.55;56.12
52653;BME280;39353;42.864;12.014;2023-05-21T09:17:46;96934.32;;;22.55;55.79
52653;BME280;39353;42.864;12.014;2023-05-21T09:20:29;96935.33;;;22.54;55.39
52653;BME280;39353;42.864;12.014;2023-05-21T09:23:04;96938.64;;;22.52;55.11
52653;BME280;39353;42.864;12.014;2023-05-21T09:25:32;96938.54;;;22.53;54.66
52653;BME280;39353;42.864;12.014;2023-05-21T09:28:15;96937.83;;;22.53;54.51
52653;BME280;39353;42.864;12.014;2023-05-21T09:31:02;96942.52;;;22.52;54.26
52653;BME280;39353;42.864;12.014;2023-05-21T09:33:46;96947.15;;;22.54;54.59
52653;BME280;39353;42.864;12.014;2023-05-21T09:36:27;96948.57;;;22.57;54.81
52653;BME280;39353;42.864;12.014;2023-05-21T09:38:56;96950.34;;;22.61;55.40
52653;BME280;39353;42.864;12.014;2023-05-21T09:41:33;96945.74;;;22.67;56.68
52653;BME280;39353;42.864;12.014;2023-05-21T09:44:03;96941.96;;;22.70;56.93
52653;BME280;39353;42.864;12.014;2023-05-21T09:46:44;96942.77;;;22.73;57.42
52653;BME280;39353;42.864;12.014;2023-05-21T09:49:26;96942.40;;;22.78;57.92
52653;BME280;39353;42.864;12.014;2023-05-21T09:51:55;96941.20;;;22.82;58.02
52653;BME280;39353;42.864;12.014;2023-05-21T09:54:37;96940.21;;;22.82;54.94
52653;BME280;39353;42.864;12.014;2023-05-21T09:57:23;96932.41;;;22.80;54.32
52653;BME280;39353;42.864;12.014;2023-05-21T09:59:50;96935.64;;;22.80;55.06
52653;BME280;39353;42.864;12.014;2023-05-21T10:02:23;96936.82;;;22.82;54.44
52653;BME280;39353;42.864;12.014;2023-05-21T10:04:51;96936.04;;;22.76;52.86
52653;BME280;39353;42.864;12.014;2023-05-21T10:07:21;96939.33;;;22.76;53.77
52653;BME280;39353;42.864;12.014;2023-05-21T10:10:05;96938.42;;;22.74;53.43
52653;BME280;39353;42.864;12.014;2023-05-21T10:12:54;96931.44;;;22.72;53.92
52653;BME280;39353;42.864;12.014;2023-05-21T10:15:30;96933.38;;;22.73;53.36
52653;BME280;39353;42.864;12.014;2023-05-21T10:18:12;96929.64;;;22.76;53.82
52653;BME280;39353;42.864;12.014;2023-05-21T10:20:41;96935.41;;;22.71;52.89
52653;BME280;39353;42.864;12.014;2023-05-21T10:23:09;96938.09;;;22.67;52.56
52653;BME280;39353;42.864;12.014;2023-05-21T10:25:52;96936.52;;;22.65;52.10
52653;BME280;39353;42.864;12.014;2023-05-21T10:28:35;96936.36;;;22.63;52.22
52653;BME280;39353;42.864;12.014;2023-05-21T10:31:03;96938.15;;;22.62;52.55
52653;BME280;39353;42.864;12.014;2023-05-21T10:33:30;96937.05;;;22.60;53.08
52653;BME280;39353;42.864;12.014;2023-05-21T10:36:15;96937.36;;;22.60;53.52
52653;BME280;39353;42.864;12.014;2023-05-21T10:39:00;96935.33;;;22.60;53.94
52653;BME280;39353;42.864;12.014;2023-05-21T10:41:48;96932.02;;;22.58;53.82
52653;BME280;39353;42.864;12.014;2023-05-21T10:47:52;96935.46;;;22.59;53.96
52653;BME280;39353;42.864;12.014;2023-05-21T10:53:24;96934.87;;;22.59;54.30
52653;BME280;39353;42.864;12.014;2023-05-21T10:56:31;96938.03;;;22.58;54.38
52653;BME280;39353;42.864;12.014;2023-05-21T11:02:14;96935.48;;;22.56;54.63
52653;BME280;39353;42.864;12.014;2023-05-21T11:05:00;96933.86;;;22.57;54.66
52653;BME280;39353;42.864;12.014;2023-05-21T11:07:56;96935.25;;;22.59;55.01
52653;BME280;39353;42.864;12.014;2023-05-21T11:10:39;96933.11;;;22.62;55.81
52653;BME280;39353;42.864;12.014;2023-05-21T11:13:20;96935.42;;;22.64;56.95
52653;BME280;39353;42.864;12.014;2023-05-21T11:21:16;96926.84;;;22.76;60.82
52653;BME280;39353;42.864;12.014;2023-05-21T11:24:04;96932.23;;;22.83;62.13
52653;BME280;39353;42.864;12.014;2023-05-21T11:29:16;96929.44;;;22.91;63.60
52653;BME280;39353;42.864;12.014;2023-05-21T11:31:58;96933.65;;;22.94;63.84
52653;BME280;39353;42.864;12.014;2023-05-21T11:34:45;96925.34;;;22.99;64.95
52653;BME280;39353;42.864;12.014;2023-05-21T11:39:50;96922.41;;;23.01;65.13
52653;BME280;39353;42.864;12.014;2023-05-21T11:42:37;96919.23;;;23.01;64.90
52653;BME280;39353;42.864;12.014;2023-05-21T11:48:30;96920.07;;;22.98;63.70
52653;BME280;39353;42.864;12.014;2023-05-21T11:54:51;96919.27;;;22.92;63.17
52653;BME280;39353;42.864;12.014;2023-05-21T12:00:57;96923.24;;;22.89;62.77
52653;BME280;39353;42.864;12.014;2023-05-21T12:06:57;96919.66;;;22.86;62.54
52653;BME280;39353;42.864;12.014;2023-05-21T12:13:01;96921.84;;;22.83;62.30
52653;BME280;39353;42.864;12.014;2023-05-21T12:18:47;96916.23;;;22.81;61.66
52653;BME280;39353;42.864;12.014;2023-05-21T12:21:29;96911.27;;;22.78;61.60
52653;BME280;39353;42.864;12.014;2023-05-21T12:23:57;96904.19;;;22.80;61.49
52653;BME280;39353;42.864;12.014;2023-05-21T12:26:25;96903.66;;;22.82;61.19
52653;BME280;39353;42.864;12.014;2023-05-21T12:29:07;96895.80;;;22.83;60.91
52653;BME280;39353;42.864;12.014;2023-05-21T12:31:49;96895.77;;;22.84;60.75
52653;BME280;39353;42.864;12.014;2023-05-21T12:34:45;96892.16;;;22.85;60.80
52653;BME280;39353;42.864;12.014;2023-05-21T12:37:23;96896.00;;;22.89;60.72
52653;BME280;39353;42.864;12.014;2023-05-21T12:40:01;96892.17;;;22.90;60.40
52653;BME280;39353;42.864;12.014;2023-05-21T12:42:45;96891.58;;;22.89;60.33
52653;BME280;39353;42.864;12.014;2023-05-21T12:45:26;96889.54;;;22.89;59.92
52653;BME280;39353;42.864;12.014;2023-05-21T12:48:07;96885.27;;;22.88;59.78
52653;BME280;39353;42.864;12.014;2023-05-21T12:50:48;96876.77;;;22.87;59.70
52653;BME280;39353;42.864;12.014;2023-05-21T12:53:37;96868.33;;;22.86;59.33
52653;BME280;39353;42.864;12.014;2023-05-21T12:56:19;96863.89;;;22.85;59.38
52653;BME280;39353;42.864;12.014;2023-05-21T12:58:49;96869.84;;;22.84;59.07
52653;BME280;39353;42.864;12.014;2023-05-21T13:01:20;96873.66;;;22.83;59.02
52653;BME280;39353;42.864;12.014;2023-05-21T13:03:47;96869.08;;;22.81;58.91
52653;BME280;39353;42.864;12.014;2023-05-21T13:06:14;96866.02;;;22.81;59.12
52653;BME280;39353;42.864;12.014;2023-05-21T13:08:44;96873.51;;;22.81;58.92
52653;BME280;39353;42.864;12.014;2023-05-21T13:11:11;96879.52;;;22.80;59.21
52653;BME280;39353;42.864;12.014;2023-05-21T13:13:38;96885.61;;;22.78;59.13
52653;BME280;39353;42.864;12.014;2023-05-21T13:16:19;96884.02;;;22.76;59.02
52653;BME280;39353;42.864;12.014;2023-05-21T13:19:01;96882.30;;;22.75;59.12
52653;BME280;39353;42.864;12.014;2023-05-21T13:21:28;96891.39;;;22.75;59.03
52653;BME280;39353;42.864;12.014;2023-05-21T13:24:09;96886.40;;;22.74;58.75
52653;BME280;39353;42.864;12.014;2023-05-21T13:26:50;96898.92;;;22.74;58.32
52653;BME280;39353;42.864;12.014;2023-05-21T13:29:32;96906.24;;;22.73;57.95
52653;BME280;39353;42.864;12.014;2023-05-21T13:32:13;96905.27;;;22.74;57.75
52653;BME280;39353;42.864;12.014;2023-05-21T13:34:41;96904.46;;;22.72;55.50
52653;BME280;39353;42.864;12.014;2023-05-21T13:37:09;96913.72;;;22.69;55.96
52653;BME280;39353;42.864;12.014;2023-05-21T13:39:50;96921.30;;;22.67;56.53
52653;BME280;39353;42.864;12.014;2023-05-21T13:42:32;96917.11;;;22.68;56.39
52653;BME280;39353;42.864;12.014;2023-05-21T13:45:00;96895.02;;;22.68;56.57
52653;BME280;39353;42.864;12.014;2023-05-21T13:47:43;96873.23;;;22.68;56.82
52653;BME280;39353;42.864;12.014;2023-05-21T13:50:13;96890.05;;;22.66;57.00
52653;BME280;39353;42.864;12.014;2023-05-21T13:52:54;96907.53;;;22.68;56.93
52653;BME280;39353;42.864;12.014;2023-05-21T13:55:35;96887.29;;;22.68;57.02
52653;BME280;39353;42.864;12.014;2023-05-21T13:58:04;96882.52;;;22.66;56.89
52653;BME280;39353;42.864;12.014;2023-05-21T14:00:31;96886.67;;;22.66;57.04
52653;BME280;39353;42.864;12.014;2023-05-21T14:02:58;96892.64;;;22.67;56.95
52653;BME280;39353;42.864;12.014;2023-05-21T14:05:39;96874.30;;;22.66;57.04
52653;BME280;39353;42.864;12.014;2023-05-21T14:08:20;96868.82;;;22.65;57.09
52653;BME280;39353;42.864;12.014;2023-05-21T14:11:03;96869.98;;;22.65;57.04
52653;BME280;39353;42.864;12.014;2023-05-21T14:13:31;96873.70;;;22.64;57.17
52653;BME280;39353;42.864;12.014;2023-05-21T14:16:15;96875.38;;;22.64;57.16
52653;BME280;39353;42.864;12.014;2023-05-21T14:18:42;96869.44;;;22.65;57.39
52653;BME280;39353;42.864;12.014;2023-05-21T14:21:09;96861.55;;;22.65;57.56